PWSweather.com
Personal Weather Stations
Station Observations
WISCHPK61
Green Bay Schmitt Park, Green Bay, WI 54311

Green Bay Schmitt ParkGreen Bay, WI 54311

Lat: 44.514277, Lon: -87.935067

Elevation: 735

Station Type: Acu Rite Pro Weather Center model 02032C

http://greenbayweathercam.com

High Low Average
Temperature 64.9°F18.3°C 50.4°F10.2°C 56.6°F13.7°C
Dew Point 64.6°F18.1°C 45.6°F7.6°C 54.1°F12.3°C
Winds Calm Calm Calm Calm Calm SSWCalm SSW
Wind Gusts 3.5 mph5.6 kmh -- --
Humidity 99% 65% 92%
Pressure 29.29 in991.9 mb 29.14 in986.8 mb -
Precipitation 0.00 in0.0 mm - -
Hour Temp Dew Point Humidity Winds Wind Gusts Pressure Precip Precip Rate Daily Precip Total
12:00 AM 55.4°F13.0°C 48.0°F8.9°C 76% Calm Calm -- 29.15 in987.1 mb - 0.00 in0.0 mm 0.00 in0.0 mm
01:00 AM 55.8°F13.2°C 55.5°F13.1°C 99% Calm Calm -- 29.14 in986.8 mb - 0.00 in0.0 mm 0.00 in0.0 mm
02:00 AM 55.2°F12.9°C 54.9°F12.7°C 99% Calm Calm -- 29.15 in987.1 mb - 0.00 in0.0 mm 0.00 in0.0 mm
03:00 AM 54.3°F12.4°C 46.5°F8.1°C 75% Calm Calm -- 29.15 in987.1 mb - 0.00 in0.0 mm 0.00 in0.0 mm
04:00 AM 53.2°F11.8°C 52.9°F11.6°C 99% Calm Calm 3.5 mph5.6 kmh 29.16 in987.5 mb - 0.00 in0.0 mm 0.00 in0.0 mm
05:00 AM 52.7°F11.5°C 48.0°F8.9°C 84% Calm Calm -- 29.16 in987.5 mb - 0.00 in0.0 mm 0.00 in0.0 mm
06:00 AM 51.3°F10.7°C 51.0°F10.6°C 99% Calm Calm -- 29.17 in987.8 mb - 0.00 in0.0 mm 0.00 in0.0 mm
07:00 AM 50.4°F10.2°C 50.1°F10.1°C 99% Calm Calm -- 29.19 in988.5 mb - 0.00 in0.0 mm 0.00 in0.0 mm
08:00 AM 51.6°F10.9°C 51.3°F10.7°C 99% Calm Calm -- 29.22 in989.5 mb - 0.00 in0.0 mm 0.00 in0.0 mm
09:00 AM 52.2°F11.2°C 52.0°F11.1°C 99% Calm Calm -- 29.22 in989.5 mb - 0.00 in0.0 mm 0.00 in0.0 mm
10:00 AM 55.6°F13.1°C 55.3°F12.9°C 99% Calm Calm -- 29.21 in989.2 mb - 0.00 in0.0 mm 0.00 in0.0 mm
11:00 AM 57.7°F14.3°C 57.4°F14.1°C 99% Calm Calm -- 29.23 in989.8 mb - 0.00 in0.0 mm 0.00 in0.0 mm
12:00 PM 59.4°F15.2°C 52.2°F11.2°C 77% Calm Calm -- 29.24 in990.2 mb - 0.00 in0.0 mm 0.00 in0.0 mm
01:00 PM 57.2°F14.0°C 51.4°F10.8°C 81% Calm Calm -- 29.25 in990.5 mb - 0.00 in0.0 mm 0.00 in0.0 mm
02:00 PM 58.8°F14.9°C 58.5°F14.7°C 99% Calm Calm -- 29.24 in990.2 mb - 0.00 in0.0 mm 0.00 in0.0 mm
03:00 PM 64.9°F18.3°C 64.6°F18.1°C 99% Calm Calm -- 29.23 in989.8 mb - 0.00 in0.0 mm 0.00 in0.0 mm
04:00 PM 61.4°F16.3°C 61.1°F16.2°C 99% Calm Calm -- 29.23 in989.8 mb - 0.00 in0.0 mm 0.00 in0.0 mm
05:00 PM 64.9°F18.3°C 64.6°F18.1°C 99% Calm Calm -- 29.23 in989.8 mb - 0.00 in0.0 mm 0.00 in0.0 mm
06:00 PM 62.8°F17.1°C 54.4°F12.4°C 74% Calm Calm -- 29.25 in990.5 mb - 0.00 in0.0 mm 0.00 in0.0 mm
07:00 PM 61.2°F16.2°C 60.9°F16.1°C 99% Calm Calm -- 29.25 in990.5 mb - 0.00 in0.0 mm 0.00 in0.0 mm
08:00 PM 58.3°F14.6°C 46.6°F8.1°C 65% Calm Calm -- 29.26 in990.9 mb - 0.00 in0.0 mm 0.00 in0.0 mm
09:00 PM 55.6°F13.1°C 55.3°F12.9°C 99% Calm Calm -- 29.24 in990.2 mb - 0.00 in0.0 mm 0.00 in0.0 mm
10:00 PM 54.1°F12.3°C 45.6°F7.6°C 73% Calm Calm -- 29.27 in991.2 mb - 0.00 in0.0 mm 0.00 in0.0 mm
11:00 PM 54.9°F12.7°C 54.6°F12.6°C 99% Calm Calm -- 29.29 in991.9 mb - 0.00 in0.0 mm 0.00 in0.0 mm